sensor_id;sensor_type;location;lat;lon;timestamp;P1;durP1;ratioP1;P2;durP2;ratioP2
13485;SDS011;6815;59.336;17.998;2023-02-28T00:00:31;1.20;;;0.93;;
13485;SDS011;6815;59.336;17.998;2023-02-28T00:02:57;2.33;;;1.07;;
13485;SDS011;6815;59.336;17.998;2023-02-28T00:05:23;1.87;;;0.80;;
13485;SDS011;6815;59.336;17.998;2023-02-28T00:07:50;2.37;;;0.80;;
13485;SDS011;6815;59.336;17.998;2023-02-28T00:10:17;1.37;;;0.97;;
13485;SDS011;6815;59.336;17.998;2023-02-28T00:12:46;0.73;;;0.70;;
13485;SDS011;6815;59.336;17.998;2023-02-28T00:15:12;1.20;;;0.73;;
13485;SDS011;6815;59.336;17.998;2023-02-28T00:17:38;1.70;;;0.70;;
13485;SDS011;6815;59.336;17.998;2023-02-28T00:20:04;1.00;;;0.80;;
13485;SDS011;6815;59.336;17.998;2023-02-28T00:22:34;0.93;;;0.73;;
13485;SDS011;6815;59.336;17.998;2023-02-28T00:25:01;1.80;;;0.90;;
13485;SDS011;6815;59.336;17.998;2023-02-28T00:27:27;1.20;;;1.00;;
13485;SDS011;6815;59.336;17.998;2023-02-28T00:29:52;1.47;;;0.80;;
13485;SDS011;6815;59.336;17.998;2023-02-28T00:32:19;1.10;;;0.90;;
13485;SDS011;6815;59.336;17.998;2023-02-28T00:34:44;2.53;;;0.93;;
13485;SDS011;6815;59.336;17.998;2023-02-28T00:37:10;1.67;;;0.93;;
13485;SDS011;6815;59.336;17.998;2023-02-28T00:39:39;1.20;;;1.10;;
13485;SDS011;6815;59.336;17.998;2023-02-28T00:42:05;0.80;;;0.80;;
13485;SDS011;6815;59.336;17.998;2023-02-28T00:44:31;0.93;;;0.80;;
13485;SDS011;6815;59.336;17.998;2023-02-28T00:46:57;1.03;;;0.63;;
13485;SDS011;6815;59.336;17.998;2023-02-28T00:49:24;1.30;;;0.77;;
13485;SDS011;6815;59.336;17.998;2023-02-28T00:51:50;1.17;;;0.63;;
13485;SDS011;6815;59.336;17.998;2023-02-28T00:54:16;0.60;;;0.60;;
13485;SDS011;6815;59.336;17.998;2023-02-28T00:56:42;1.00;;;0.80;;
13485;SDS011;6815;59.336;17.998;2023-02-28T00:59:07;0.80;;;0.70;;
13485;SDS011;6815;59.336;17.998;2023-02-28T01:01:33;1.33;;;0.70;;
13485;SDS011;6815;59.336;17.998;2023-02-28T01:03:59;1.43;;;0.67;;
13485;SDS011;6815;59.336;17.998;2023-02-28T01:06:24;2.43;;;1.00;;
13485;SDS011;6815;59.336;17.998;2023-02-28T01:08:49;1.13;;;0.80;;
13485;SDS011;6815;59.336;17.998;2023-02-28T01:11:18;0.70;;;0.70;;
13485;SDS011;6815;59.336;17.998;2023-02-28T01:13:45;0.90;;;0.70;;
13485;SDS011;6815;59.336;17.998;2023-02-28T01:16:11;1.07;;;0.80;;
13485;SDS011;6815;59.336;17.998;2023-02-28T01:18:37;0.80;;;0.70;;
13485;SDS011;6815;59.336;17.998;2023-02-28T01:21:03;1.73;;;1.00;;
13485;SDS011;6815;59.336;17.998;2023-02-28T01:23:32;0.50;;;0.50;;
13485;SDS011;6815;59.336;17.998;2023-02-28T01:26:02;0.90;;;0.77;;
13485;SDS011;6815;59.336;17.998;2023-02-28T01:28:39;2.00;;;0.93;;
13485;SDS011;6815;59.336;17.998;2023-02-28T01:31:05;2.17;;;0.90;;
13485;SDS011;6815;59.336;17.998;2023-02-28T01:33:31;1.23;;;0.70;;
13485;SDS011;6815;59.336;17.998;2023-02-28T01:38:30;0.70;;;0.70;;
13485;SDS011;6815;59.336;17.998;2023-02-28T01:40:56;0.57;;;0.50;;
13485;SDS011;6815;59.336;17.998;2023-02-28T01:45:46;1.27;;;0.83;;
13485;SDS011;6815;59.336;17.998;2023-02-28T01:48:12;0.50;;;0.50;;
13485;SDS011;6815;59.336;17.998;2023-02-28T01:50:39;0.83;;;0.70;;
13485;SDS011;6815;59.336;17.998;2023-02-28T01:53:09;1.77;;;0.70;;
13485;SDS011;6815;59.336;17.998;2023-02-28T01:55:39;0.90;;;0.53;;
13485;SDS011;6815;59.336;17.998;2023-02-28T01:58:06;1.30;;;0.60;;
13485;SDS011;6815;59.336;17.998;2023-02-28T02:00:33;0.60;;;0.60;;
13485;SDS011;6815;59.336;17.998;2023-02-28T02:03:01;0.73;;;0.70;;
13485;SDS011;6815;59.336;17.998;2023-02-28T02:05:33;0.53;;;0.53;;
13485;SDS011;6815;59.336;17.998;2023-02-28T02:08:06;0.63;;;0.60;;
13485;SDS011;6815;59.336;17.998;2023-02-28T02:10:36;0.47;;;0.47;;
13485;SDS011;6815;59.336;17.998;2023-02-28T02:16:15;1.50;;;0.50;;
13485;SDS011;6815;59.336;17.998;2023-02-28T02:18:43;0.60;;;0.60;;
13485;SDS011;6815;59.336;17.998;2023-02-28T02:26:47;1.40;;;0.90;;
13485;SDS011;6815;59.336;17.998;2023-02-28T02:42:43;1.03;;;0.63;;
13485;SDS011;6815;59.336;17.998;2023-02-28T02:45:17;2.03;;;1.00;;
13485;SDS011;6815;59.336;17.998;2023-02-28T02:47:48;1.00;;;0.70;;
13485;SDS011;6815;59.336;17.998;2023-02-28T02:50:20;1.03;;;0.60;;
13485;SDS011;6815;59.336;17.998;2023-02-28T02:52:53;0.90;;;0.70;;
13485;SDS011;6815;59.336;17.998;2023-02-28T02:55:23;0.67;;;0.50;;
13485;SDS011;6815;59.336;17.998;2023-02-28T02:57:50;0.57;;;0.57;;
13485;SDS011;6815;59.336;17.998;2023-02-28T03:00:22;0.67;;;0.50;;
13485;SDS011;6815;59.336;17.998;2023-02-28T03:02:52;1.67;;;0.70;;
13485;SDS011;6815;59.336;17.998;2023-02-28T03:05:25;0.93;;;0.83;;
13485;SDS011;6815;59.336;17.998;2023-02-28T03:07:54;0.87;;;0.57;;
13485;SDS011;6815;59.336;17.998;2023-02-28T03:13:03;0.77;;;0.53;;
13485;SDS011;6815;59.336;17.998;2023-02-28T03:15:34;0.50;;;0.40;;
13485;SDS011;6815;59.336;17.998;2023-02-28T03:18:10;0.50;;;0.50;;
13485;SDS011;6815;59.336;17.998;2023-02-28T03:25:46;0.40;;;0.40;;
13485;SDS011;6815;59.336;17.998;2023-02-28T03:31:15;1.00;;;0.60;;
13485;SDS011;6815;59.336;17.998;2023-02-28T03:33:43;0.57;;;0.40;;
13485;SDS011;6815;59.336;17.998;2023-02-28T03:36:20;1.20;;;0.60;;
13485;SDS011;6815;59.336;17.998;2023-02-28T03:38:58;1.80;;;0.50;;
13485;SDS011;6815;59.336;17.998;2023-02-28T03:41:32;0.67;;;0.63;;
13485;SDS011;6815;59.336;17.998;2023-02-28T03:44:06;0.60;;;0.40;;
13485;SDS011;6815;59.336;17.998;2023-02-28T03:46:40;0.40;;;0.40;;
13485;SDS011;6815;59.336;17.998;2023-02-28T03:49:16;0.63;;;0.53;;
13485;SDS011;6815;59.336;17.998;2023-02-28T03:51:47;2.23;;;0.57;;
13485;SDS011;6815;59.336;17.998;2023-02-28T03:54:19;0.60;;;0.57;;
13485;SDS011;6815;59.336;17.998;2023-02-28T03:57:22;0.60;;;0.57;;
13485;SDS011;6815;59.336;17.998;2023-02-28T03:59:49;0.57;;;0.57;;
13485;SDS011;6815;59.336;17.998;2023-02-28T04:02:19;0.70;;;0.60;;
13485;SDS011;6815;59.336;17.998;2023-02-28T04:04:44;0.50;;;0.50;;
13485;SDS011;6815;59.336;17.998;2023-02-28T04:07:13;0.77;;;0.60;;
13485;SDS011;6815;59.336;17.998;2023-02-28T04:09:40;0.57;;;0.40;;
13485;SDS011;6815;59.336;17.998;2023-02-28T04:12:06;1.37;;;0.60;;
13485;SDS011;6815;59.336;17.998;2023-02-28T04:14:32;0.90;;;0.50;;
13485;SDS011;6815;59.336;17.998;2023-02-28T04:16:57;0.87;;;0.67;;
13485;SDS011;6815;59.336;17.998;2023-02-28T04:19:23;0.77;;;0.50;;
13485;SDS011;6815;59.336;17.998;2023-02-28T04:21:52;0.40;;;0.40;;
13485;SDS011;6815;59.336;17.998;2023-02-28T04:24:19;0.87;;;0.70;;
13485;SDS011;6815;59.336;17.998;2023-02-28T04:26:47;0.60;;;0.60;;
13485;SDS011;6815;59.336;17.998;2023-02-28T04:29:17;0.63;;;0.50;;
13485;SDS011;6815;59.336;17.998;2023-02-28T04:31:45;0.67;;;0.50;;
13485;SDS011;6815;59.336;17.998;2023-02-28T04:34:11;1.93;;;0.60;;
13485;SDS011;6815;59.336;17.998;2023-02-28T04:36:36;0.67;;;0.50;;
13485;SDS011;6815;59.336;17.998;2023-02-28T04:39:02;0.43;;;0.43;;
13485;SDS011;6815;59.336;17.998;2023-02-28T04:41:28;0.50;;;0.50;;
13485;SDS011;6815;59.336;17.998;2023-02-28T04:43:54;0.93;;;0.60;;
13485;SDS011;6815;59.336;17.998;2023-02-28T04:46:20;0.60;;;0.50;;
13485;SDS011;6815;59.336;17.998;2023-02-28T04:48:46;0.47;;;0.47;;
13485;SDS011;6815;59.336;17.998;2023-02-28T04:51:12;0.73;;;0.50;;
13485;SDS011;6815;59.336;17.998;2023-02-28T04:53:40;0.40;;;0.40;;
13485;SDS011;6815;59.336;17.998;2023-02-28T04:56:07;1.20;;;0.60;;
13485;SDS011;6815;59.336;17.998;2023-02-28T04:58:35;0.80;;;0.60;;
13485;SDS011;6815;59.336;17.998;2023-02-28T05:01:01;0.90;;;0.70;;
13485;SDS011;6815;59.336;17.998;2023-02-28T05:03:38;1.83;;;0.70;;
13485;SDS011;6815;59.336;17.998;2023-02-28T05:06:07;0.70;;;0.57;;
13485;SDS011;6815;59.336;17.998;2023-02-28T05:08:33;1.37;;;0.70;;
13485;SDS011;6815;59.336;17.998;2023-02-28T05:10:59;0.83;;;0.70;;
13485;SDS011;6815;59.336;17.998;2023-02-28T05:13:26;0.50;;;0.50;;
13485;SDS011;6815;59.336;17.998;2023-02-28T05:15:52;1.03;;;0.50;;
13485;SDS011;6815;59.336;17.998;2023-02-28T05:18:18;0.93;;;0.60;;
13485;SDS011;6815;59.336;17.998;2023-02-28T05:20:43;0.73;;;0.50;;
13485;SDS011;6815;59.336;17.998;2023-02-28T05:23:15;1.17;;;0.60;;
13485;SDS011;6815;59.336;17.998;2023-02-28T05:25:42;0.70;;;0.40;;
13485;SDS011;6815;59.336;17.998;2023-02-28T05:28:09;0.70;;;0.60;;
13485;SDS011;6815;59.336;17.998;2023-02-28T05:30:35;0.60;;;0.60;;
13485;SDS011;6815;59.336;17.998;2023-02-28T05:33:00;0.83;;;0.60;;
13485;SDS011;6815;59.336;17.998;2023-02-28T05:35:25;0.60;;;0.50;;
13485;SDS011;6815;59.336;17.998;2023-02-28T05:37:54;0.60;;;0.60;;
13485;SDS011;6815;59.336;17.998;2023-02-28T05:40:19;0.70;;;0.50;;
13485;SDS011;6815;59.336;17.998;2023-02-28T05:42:45;0.80;;;0.60;;
13485;SDS011;6815;59.336;17.998;2023-02-28T05:45:11;1.47;;;0.73;;
13485;SDS011;6815;59.336;17.998;2023-02-28T05:47:37;0.60;;;0.60;;
13485;SDS011;6815;59.336;17.998;2023-02-28T05:50:03;0.80;;;0.70;;
13485;SDS011;6815;59.336;17.998;2023-02-28T05:52:29;0.70;;;0.60;;
13485;SDS011;6815;59.336;17.998;2023-02-28T05:54:55;0.60;;;0.60;;
13485;SDS011;6815;59.336;17.998;2023-02-28T05:57:20;1.20;;;0.60;;
13485;SDS011;6815;59.336;17.998;2023-02-28T05:59:46;0.57;;;0.50;;
13485;SDS011;6815;59.336;17.998;2023-02-28T06:02:12;0.63;;;0.57;;
13485;SDS011;6815;59.336;17.998;2023-02-28T06:04:40;0.60;;;0.60;;
13485;SDS011;6815;59.336;17.998;2023-02-28T06:07:06;1.33;;;0.67;;
13485;SDS011;6815;59.336;17.998;2023-02-28T06:09:32;1.23;;;0.87;;
13485;SDS011;6815;59.336;17.998;2023-02-28T06:11:58;0.60;;;0.60;;
13485;SDS011;6815;59.336;17.998;2023-02-28T06:14:24;0.70;;;0.70;;
13485;SDS011;6815;59.336;17.998;2023-02-28T06:16:49;0.87;;;0.60;;
13485;SDS011;6815;59.336;17.998;2023-02-28T06:19:15;0.70;;;0.60;;
13485;SDS011;6815;59.336;17.998;2023-02-28T06:21:41;1.10;;;0.73;;
13485;SDS011;6815;59.336;17.998;2023-02-28T06:24:07;0.90;;;0.70;;
13485;SDS011;6815;59.336;17.998;2023-02-28T06:26:32;1.03;;;0.70;;
13485;SDS011;6815;59.336;17.998;2023-02-28T06:28:58;0.70;;;0.57;;
13485;SDS011;6815;59.336;17.998;2023-02-28T06:31:23;0.63;;;0.53;;
13485;SDS011;6815;59.336;17.998;2023-02-28T06:33:50;0.70;;;0.60;;
13485;SDS011;6815;59.336;17.998;2023-02-28T06:36:16;0.50;;;0.50;;
13485;SDS011;6815;59.336;17.998;2023-02-28T06:38:42;0.70;;;0.50;;
13485;SDS011;6815;59.336;17.998;2023-02-28T06:41:08;0.53;;;0.50;;
13485;SDS011;6815;59.336;17.998;2023-02-28T06:43:39;0.93;;;0.60;;
13485;SDS011;6815;59.336;17.998;2023-02-28T06:46:07;0.47;;;0.47;;
13485;SDS011;6815;59.336;17.998;2023-02-28T06:48:35;2.97;;;0.57;;
13485;SDS011;6815;59.336;17.998;2023-02-28T06:51:01;0.60;;;0.60;;
13485;SDS011;6815;59.336;17.998;2023-02-28T06:53:29;1.47;;;0.67;;
13485;SDS011;6815;59.336;17.998;2023-02-28T06:55:55;0.67;;;0.60;;
13485;SDS011;6815;59.336;17.998;2023-02-28T06:58:21;0.70;;;0.60;;
13485;SDS011;6815;59.336;17.998;2023-02-28T07:00:50;0.67;;;0.67;;
13485;SDS011;6815;59.336;17.998;2023-02-28T07:03:16;3.13;;;0.83;;
13485;SDS011;6815;59.336;17.998;2023-02-28T07:05:43;0.60;;;0.60;;
13485;SDS011;6815;59.336;17.998;2023-02-28T07:08:09;0.60;;;0.57;;
13485;SDS011;6815;59.336;17.998;2023-02-28T07:10:36;0.63;;;0.60;;
13485;SDS011;6815;59.336;17.998;2023-02-28T07:13:02;0.60;;;0.60;;
13485;SDS011;6815;59.336;17.998;2023-02-28T07:15:29;1.20;;;0.80;;
13485;SDS011;6815;59.336;17.998;2023-02-28T07:17:55;1.00;;;0.50;;
13485;SDS011;6815;59.336;17.998;2023-02-28T07:20:21;0.60;;;0.60;;
13485;SDS011;6815;59.336;17.998;2023-02-28T07:22:47;0.83;;;0.70;;
13485;SDS011;6815;59.336;17.998;2023-02-28T07:25:20;0.77;;;0.63;;
13485;SDS011;6815;59.336;17.998;2023-02-28T07:27:46;0.80;;;0.70;;
13485;SDS011;6815;59.336;17.998;2023-02-28T07:30:11;0.60;;;0.50;;
13485;SDS011;6815;59.336;17.998;2023-02-28T07:32:37;0.67;;;0.60;;
13485;SDS011;6815;59.336;17.998;2023-02-28T07:35:03;1.10;;;0.70;;
13485;SDS011;6815;59.336;17.998;2023-02-28T07:37:30;0.70;;;0.60;;
13485;SDS011;6815;59.336;17.998;2023-02-28T07:39:56;0.50;;;0.50;;
13485;SDS011;6815;59.336;17.998;2023-02-28T07:42:22;0.57;;;0.50;;
13485;SDS011;6815;59.336;17.998;2023-02-28T07:44:48;0.53;;;0.50;;
13485;SDS011;6815;59.336;17.998;2023-02-28T07:47:13;0.67;;;0.53;;
13485;SDS011;6815;59.336;17.998;2023-02-28T07:49:39;0.60;;;0.60;;
13485;SDS011;6815;59.336;17.998;2023-02-28T07:52:05;0.70;;;0.60;;
13485;SDS011;6815;59.336;17.998;2023-02-28T07:54:31;0.80;;;0.70;;
13485;SDS011;6815;59.336;17.998;2023-02-28T07:56:58;1.63;;;0.77;;
13485;SDS011;6815;59.336;17.998;2023-02-28T07:59:23;1.40;;;0.70;;
13485;SDS011;6815;59.336;17.998;2023-02-28T08:01:49;1.00;;;0.80;;
13485;SDS011;6815;59.336;17.998;2023-02-28T08:04:16;1.77;;;0.60;;
13485;SDS011;6815;59.336;17.998;2023-02-28T08:06:42;1.07;;;0.77;;
13485;SDS011;6815;59.336;17.998;2023-02-28T08:09:07;1.30;;;0.70;;
13485;SDS011;6815;59.336;17.998;2023-02-28T08:11:33;0.60;;;0.53;;
13485;SDS011;6815;59.336;17.998;2023-02-28T08:13:58;1.30;;;0.63;;
13485;SDS011;6815;59.336;17.998;2023-02-28T08:16:24;0.50;;;0.50;;
13485;SDS011;6815;59.336;17.998;2023-02-28T08:18:52;0.80;;;0.60;;
13485;SDS011;6815;59.336;17.998;2023-02-28T08:21:18;0.50;;;0.50;;
13485;SDS011;6815;59.336;17.998;2023-02-28T08:23:48;0.80;;;0.60;;
13485;SDS011;6815;59.336;17.998;2023-02-28T08:26:18;0.93;;;0.40;;
13485;SDS011;6815;59.336;17.998;2023-02-28T08:28:44;1.47;;;0.50;;
13485;SDS011;6815;59.336;17.998;2023-02-28T08:31:10;0.40;;;0.40;;
13485;SDS011;6815;59.336;17.998;2023-02-28T08:33:38;0.60;;;0.50;;
13485;SDS011;6815;59.336;17.998;2023-02-28T08:36:05;0.40;;;0.40;;
13485;SDS011;6815;59.336;17.998;2023-02-28T08:38:31;0.80;;;0.40;;
13485;SDS011;6815;59.336;17.998;2023-02-28T08:40:57;0.37;;;0.37;;
13485;SDS011;6815;59.336;17.998;2023-02-28T08:43:24;0.50;;;0.47;;
13485;SDS011;6815;59.336;17.998;2023-02-28T08:45:51;0.40;;;0.40;;
13485;SDS011;6815;59.336;17.998;2023-02-28T08:48:21;0.90;;;0.50;;
13485;SDS011;6815;59.336;17.998;2023-02-28T08:51:01;0.50;;;0.50;;
13485;SDS011;6815;59.336;17.998;2023-02-28T08:53:29;0.57;;;0.50;;
13485;SDS011;6815;59.336;17.998;2023-02-28T08:55:59;0.30;;;0.30;;
13485;SDS011;6815;59.336;17.998;2023-02-28T08:58:26;0.83;;;0.40;;
13485;SDS011;6815;59.336;17.998;2023-02-28T09:00:52;0.80;;;0.60;;
13485;SDS011;6815;59.336;17.998;2023-02-28T09:03:18;0.90;;;0.47;;
13485;SDS011;6815;59.336;17.998;2023-02-28T09:05:56;1.23;;;0.60;;
13485;SDS011;6815;59.336;17.998;2023-02-28T09:08:24;0.77;;;0.40;;
13485;SDS011;6815;59.336;17.998;2023-02-28T09:10:50;0.87;;;0.40;;
13485;SDS011;6815;59.336;17.998;2023-02-28T09:13:17;0.60;;;0.40;;
13485;SDS011;6815;59.336;17.998;2023-02-28T09:15:43;0.30;;;0.30;;
13485;SDS011;6815;59.336;17.998;2023-02-28T09:18:08;0.47;;;0.40;;
13485;SDS011;6815;59.336;17.998;2023-02-28T09:20:33;0.50;;;0.40;;
13485;SDS011;6815;59.336;17.998;2023-02-28T09:23:01;0.93;;;0.43;;
13485;SDS011;6815;59.336;17.998;2023-02-28T09:25:27;1.07;;;0.40;;
13485;SDS011;6815;59.336;17.998;2023-02-28T09:27:52;0.20;;;0.20;;
13485;SDS011;6815;59.336;17.998;2023-02-28T09:30:18;0.37;;;0.33;;
13485;SDS011;6815;59.336;17.998;2023-02-28T09:32:43;0.97;;;0.50;;
13485;SDS011;6815;59.336;17.998;2023-02-28T09:35:16;0.60;;;0.53;;
13485;SDS011;6815;59.336;17.998;2023-02-28T09:37:49;0.53;;;0.50;;
13485;SDS011;6815;59.336;17.998;2023-02-28T09:40:17;0.30;;;0.30;;
13485;SDS011;6815;59.336;17.998;2023-02-28T09:42:48;0.33;;;0.33;;
13485;SDS011;6815;59.336;17.998;2023-02-28T09:48:09;1.03;;;0.27;;
13485;SDS011;6815;59.336;17.998;2023-02-28T09:53:28;1.93;;;0.30;;
13485;SDS011;6815;59.336;17.998;2023-02-28T09:55:59;0.40;;;0.40;;
13485;SDS011;6815;59.336;17.998;2023-02-28T09:58:35;0.40;;;0.40;;
13485;SDS011;6815;59.336;17.998;2023-02-28T10:07:04;0.87;;;0.50;;
13485;SDS011;6815;59.336;17.998;2023-02-28T10:09:42;0.87;;;0.40;;
13485;SDS011;6815;59.336;17.998;2023-02-28T10:12:10;1.60;;;0.40;;
13485;SDS011;6815;59.336;17.998;2023-02-28T10:14:38;1.47;;;0.70;;
13485;SDS011;6815;59.336;17.998;2023-02-28T10:17:14;0.73;;;0.40;;
13485;SDS011;6815;59.336;17.998;2023-02-28T10:22:52;0.47;;;0.40;;
13485;SDS011;6815;59.336;17.998;2023-02-28T10:25:27;1.73;;;0.40;;
13485;SDS011;6815;59.336;17.998;2023-02-28T10:27:57;0.60;;;0.40;;
13485;SDS011;6815;59.336;17.998;2023-02-28T10:30:39;0.50;;;0.50;;
13485;SDS011;6815;59.336;17.998;2023-02-28T10:33:13;0.50;;;0.40;;
13485;SDS011;6815;59.336;17.998;2023-02-28T10:35:45;1.50;;;0.30;;
13485;SDS011;6815;59.336;17.998;2023-02-28T10:41:10;0.40;;;0.30;;
13485;SDS011;6815;59.336;17.998;2023-02-28T10:43:52;0.60;;;0.40;;
13485;SDS011;6815;59.336;17.998;2023-02-28T10:46:18;2.63;;;0.73;;
13485;SDS011;6815;59.336;17.998;2023-02-28T10:49:13;0.40;;;0.40;;
13485;SDS011;6815;59.336;17.998;2023-02-28T10:51:45;0.40;;;0.40;;
13485;SDS011;6815;59.336;17.998;2023-02-28T10:54:33;0.70;;;0.50;;
13485;SDS011;6815;59.336;17.998;2023-02-28T10:57:06;0.30;;;0.30;;
13485;SDS011;6815;59.336;17.998;2023-02-28T10:59:33;0.83;;;0.40;;
13485;SDS011;6815;59.336;17.998;2023-02-28T11:01:58;0.97;;;0.40;;
13485;SDS011;6815;59.336;17.998;2023-02-28T11:07:27;1.10;;;0.50;;
13485;SDS011;6815;59.336;17.998;2023-02-28T11:09:48;3.03;;;0.60;;
13485;SDS011;6815;59.336;17.998;2023-02-28T11:12:22;0.50;;;0.40;;
13485;SDS011;6815;59.336;17.998;2023-02-28T11:14:57;0.53;;;0.40;;
13485;SDS011;6815;59.336;17.998;2023-02-28T11:17:28;1.30;;;0.53;;
13485;SDS011;6815;59.336;17.998;2023-02-28T11:19:57;0.40;;;0.40;;
13485;SDS011;6815;59.336;17.998;2023-02-28T11:22:28;0.67;;;0.50;;
13485;SDS011;6815;59.336;17.998;2023-02-28T11:24:58;0.60;;;0.43;;
13485;SDS011;6815;59.336;17.998;2023-02-28T11:29:55;0.63;;;0.47;;
13485;SDS011;6815;59.336;17.998;2023-02-28T11:32:21;0.40;;;0.40;;
13485;SDS011;6815;59.336;17.998;2023-02-28T11:37:36;1.10;;;0.50;;
13485;SDS011;6815;59.336;17.998;2023-02-28T11:40:02;1.13;;;0.67;;
13485;SDS011;6815;59.336;17.998;2023-02-28T11:56:38;1.07;;;0.60;;
13485;SDS011;6815;59.336;17.998;2023-02-28T12:08:43;1.80;;;0.50;;
13485;SDS011;6815;59.336;17.998;2023-02-28T12:10:37;0.63;;;0.50;;
13485;SDS011;6815;59.336;17.998;2023-02-28T12:13:21;1.03;;;0.40;;
13485;SDS011;6815;59.336;17.998;2023-02-28T12:16:36;0.50;;;0.50;;
13485;SDS011;6815;59.336;17.998;2023-02-28T12:24:23;0.40;;;0.40;;
13485;SDS011;6815;59.336;17.998;2023-02-28T12:27:13;1.17;;;0.60;;
13485;SDS011;6815;59.336;17.998;2023-02-28T12:29:43;1.47;;;0.53;;
13485;SDS011;6815;59.336;17.998;2023-02-28T12:32:16;0.40;;;0.40;;
13485;SDS011;6815;59.336;17.998;2023-02-28T12:34:51;0.90;;;0.50;;
13485;SDS011;6815;59.336;17.998;2023-02-28T12:40:12;0.70;;;0.40;;
13485;SDS011;6815;59.336;17.998;2023-02-28T12:42:45;1.20;;;0.40;;
13485;SDS011;6815;59.336;17.998;2023-02-28T12:48:08;0.43;;;0.40;;
13485;SDS011;6815;59.336;17.998;2023-02-28T12:50:39;0.33;;;0.33;;
13485;SDS011;6815;59.336;17.998;2023-02-28T12:53:17;0.30;;;0.30;;
13485;SDS011;6815;59.336;17.998;2023-02-28T13:09:28;1.47;;;0.40;;
13485;SDS011;6815;59.336;17.998;2023-02-28T13:11:55;0.70;;;0.50;;
13485;SDS011;6815;59.336;17.998;2023-02-28T13:22:19;0.93;;;0.30;;
13485;SDS011;6815;59.336;17.998;2023-02-28T13:24:51;1.60;;;0.50;;
13485;SDS011;6815;59.336;17.998;2023-02-28T13:27:22;0.70;;;0.50;;
13485;SDS011;6815;59.336;17.998;2023-02-28T13:29:53;1.30;;;0.40;;
13485;SDS011;6815;59.336;17.998;2023-02-28T13:32:28;0.47;;;0.40;;
13485;SDS011;6815;59.336;17.998;2023-02-28T13:39:47;0.80;;;0.63;;
13485;SDS011;6815;59.336;17.998;2023-02-28T13:58:42;0.50;;;0.40;;
13485;SDS011;6815;59.336;17.998;2023-02-28T14:07:03;0.97;;;0.50;;
13485;SDS011;6815;59.336;17.998;2023-02-28T14:09:39;3.50;;;0.70;;
13485;SDS011;6815;59.336;17.998;2023-02-28T14:17:58;2.80;;;0.70;;
13485;SDS011;6815;59.336;17.998;2023-02-28T14:20:27;0.60;;;0.60;;
13485;SDS011;6815;59.336;17.998;2023-02-28T14:31:53;0.77;;;0.60;;
13485;SDS011;6815;59.336;17.998;2023-02-28T14:36:52;3.23;;;1.10;;
13485;SDS011;6815;59.336;17.998;2023-02-28T14:39:20;3.33;;;1.20;;
13485;SDS011;6815;59.336;17.998;2023-02-28T14:41:49;1.67;;;0.83;;
13485;SDS011;6815;59.336;17.998;2023-02-28T14:44:18;1.57;;;1.00;;
13485;SDS011;6815;59.336;17.998;2023-02-28T14:46:48;2.20;;;1.10;;
13485;SDS011;6815;59.336;17.998;2023-02-28T14:49:17;1.40;;;0.90;;
13485;SDS011;6815;59.336;17.998;2023-02-28T14:51:46;2.00;;;1.00;;
13485;SDS011;6815;59.336;17.998;2023-02-28T14:54:14;1.70;;;1.00;;
13485;SDS011;6815;59.336;17.998;2023-02-28T14:56:41;2.37;;;0.80;;
13485;SDS011;6815;59.336;17.998;2023-02-28T15:02:19;1.50;;;0.70;;
13485;SDS011;6815;59.336;17.998;2023-02-28T15:04:54;1.10;;;0.73;;
13485;SDS011;6815;59.336;17.998;2023-02-28T15:07:46;0.50;;;0.50;;
13485;SDS011;6815;59.336;17.998;2023-02-28T15:10:20;1.73;;;1.00;;
13485;SDS011;6815;59.336;17.998;2023-02-28T15:13:30;1.17;;;0.67;;
13485;SDS011;6815;59.336;17.998;2023-02-28T15:18:22;1.07;;;0.70;;
13485;SDS011;6815;59.336;17.998;2023-02-28T15:21:01;3.13;;;0.90;;
13485;SDS011;6815;59.336;17.998;2023-02-28T15:23:31;3.17;;;0.60;;
13485;SDS011;6815;59.336;17.998;2023-02-28T15:25:58;3.50;;;0.93;;
13485;SDS011;6815;59.336;17.998;2023-02-28T15:28:24;0.60;;;0.60;;
13485;SDS011;6815;59.336;17.998;2023-02-28T15:30:55;2.00;;;0.90;;
13485;SDS011;6815;59.336;17.998;2023-02-28T15:33:33;1.10;;;0.70;;
13485;SDS011;6815;59.336;17.998;2023-02-28T15:36:16;2.30;;;1.20;;
13485;SDS011;6815;59.336;17.998;2023-02-28T15:38:45;3.23;;;0.90;;
13485;SDS011;6815;59.336;17.998;2023-02-28T15:41:24;4.50;;;1.20;;
13485;SDS011;6815;59.336;17.998;2023-02-28T15:46:55;1.87;;;0.97;;
13485;SDS011;6815;59.336;17.998;2023-02-28T15:49:23;1.77;;;1.00;;
13485;SDS011;6815;59.336;17.998;2023-02-28T15:51:50;1.30;;;0.80;;
13485;SDS011;6815;59.336;17.998;2023-02-28T15:54:20;0.90;;;0.60;;
13485;SDS011;6815;59.336;17.998;2023-02-28T15:56:50;1.03;;;0.87;;
13485;SDS011;6815;59.336;17.998;2023-02-28T15:59:26;2.10;;;0.60;;
13485;SDS011;6815;59.336;17.998;2023-02-28T16:04:35;0.90;;;0.70;;
13485;SDS011;6815;59.336;17.998;2023-02-28T16:07:02;2.20;;;0.60;;
13485;SDS011;6815;59.336;17.998;2023-02-28T16:09:30;0.93;;;0.67;;
13485;SDS011;6815;59.336;17.998;2023-02-28T16:11:56;3.23;;;0.70;;
13485;SDS011;6815;59.336;17.998;2023-02-28T16:14:30;2.00;;;0.77;;
13485;SDS011;6815;59.336;17.998;2023-02-28T16:16:57;0.83;;;0.53;;
13485;SDS011;6815;59.336;17.998;2023-02-28T16:19:28;1.60;;;0.70;;
13485;SDS011;6815;59.336;17.998;2023-02-28T16:21:54;1.47;;;0.70;;
13485;SDS011;6815;59.336;17.998;2023-02-28T16:24:19;0.90;;;0.60;;
13485;SDS011;6815;59.336;17.998;2023-02-28T16:26:47;1.73;;;0.80;;
13485;SDS011;6815;59.336;17.998;2023-02-28T16:29:23;1.00;;;0.60;;
13485;SDS011;6815;59.336;17.998;2023-02-28T16:31:57;3.97;;;0.80;;
13485;SDS011;6815;59.336;17.998;2023-02-28T16:34:23;0.90;;;0.63;;
13485;SDS011;6815;59.336;17.998;2023-02-28T16:36:49;0.70;;;0.60;;
13485;SDS011;6815;59.336;17.998;2023-02-28T16:39:15;2.13;;;0.70;;
13485;SDS011;6815;59.336;17.998;2023-02-28T16:41:44;1.53;;;0.63;;
13485;SDS011;6815;59.336;17.998;2023-02-28T16:44:12;2.63;;;0.70;;
13485;SDS011;6815;59.336;17.998;2023-02-28T16:46:46;2.73;;;0.80;;
13485;SDS011;6815;59.336;17.998;2023-02-28T16:49:11;1.80;;;0.60;;
13485;SDS011;6815;59.336;17.998;2023-02-28T16:51:37;0.60;;;0.60;;
13485;SDS011;6815;59.336;17.998;2023-02-28T16:54:03;0.97;;;0.63;;
13485;SDS011;6815;59.336;17.998;2023-02-28T16:56:28;3.33;;;0.53;;
13485;SDS011;6815;59.336;17.998;2023-02-28T16:58:54;1.17;;;0.70;;
13485;SDS011;6815;59.336;17.998;2023-02-28T17:01:24;1.40;;;0.77;;
13485;SDS011;6815;59.336;17.998;2023-02-28T17:03:51;1.00;;;0.70;;
13485;SDS011;6815;59.336;17.998;2023-02-28T17:06:19;1.17;;;0.70;;
13485;SDS011;6815;59.336;17.998;2023-02-28T17:08:50;1.70;;;0.90;;
13485;SDS011;6815;59.336;17.998;2023-02-28T17:11:16;1.30;;;0.77;;
13485;SDS011;6815;59.336;17.998;2023-02-28T17:13:42;1.90;;;0.80;;
13485;SDS011;6815;59.336;17.998;2023-02-28T17:16:13;1.17;;;0.77;;
13485;SDS011;6815;59.336;17.998;2023-02-28T17:18:58;1.90;;;0.70;;
13485;SDS011;6815;59.336;17.998;2023-02-28T17:21:25;1.03;;;0.60;;
13485;SDS011;6815;59.336;17.998;2023-02-28T17:23:50;0.60;;;0.60;;
13485;SDS011;6815;59.336;17.998;2023-02-28T17:26:16;1.33;;;0.90;;
13485;SDS011;6815;59.336;17.998;2023-02-28T17:28:48;1.37;;;0.90;;
13485;SDS011;6815;59.336;17.998;2023-02-28T17:31:14;1.13;;;0.97;;
13485;SDS011;6815;59.336;17.998;2023-02-28T17:33:40;2.83;;;0.90;;
13485;SDS011;6815;59.336;17.998;2023-02-28T17:36:05;1.87;;;0.83;;
13485;SDS011;6815;59.336;17.998;2023-02-28T17:38:34;1.10;;;0.90;;
13485;SDS011;6815;59.336;17.998;2023-02-28T17:40:59;1.40;;;1.10;;
13485;SDS011;6815;59.336;17.998;2023-02-28T17:43:25;1.33;;;1.10;;
13485;SDS011;6815;59.336;17.998;2023-02-28T17:45:51;1.13;;;0.70;;
13485;SDS011;6815;59.336;17.998;2023-02-28T17:48:17;3.23;;;1.10;;
13485;SDS011;6815;59.336;17.998;2023-02-28T17:50:43;1.73;;;1.00;;
13485;SDS011;6815;59.336;17.998;2023-02-28T17:53:08;3.03;;;1.07;;